createdAt,value
2022-09-26T00:01:07.199Z,71.95
2022-09-26T00:08:09.671Z,71.17
2022-09-26T00:15:11.331Z,70.21
2022-09-26T00:22:12.866Z,69.80
2022-09-26T00:29:14.624Z,69.84
2022-09-26T00:36:16.447Z,70.02
2022-09-26T00:43:34.827Z,70.49
2022-09-26T00:50:37.799Z,70.64
2022-09-26T00:57:48.003Z,71.14
2022-09-26T01:04:49.607Z,71.68
2022-09-26T01:11:51.191Z,71.80
2022-09-26T01:18:55.241Z,71.85
2022-09-26T01:26:30.719Z,72.16
2022-09-26T01:33:59.491Z,72.32
2022-09-26T01:41:33.885Z,71.85
2022-09-26T01:48:40.093Z,71.90
2022-09-26T01:55:47.294Z,71.76
2022-09-26T02:02:49.442Z,71.58
2022-09-26T02:09:53.364Z,71.30
2022-09-26T02:16:57.048Z,71.06
2022-09-26T02:23:58.643Z,71.11
2022-09-26T02:31:01.219Z,70.89
2022-09-26T02:38:05.684Z,71.30
2022-09-26T02:45:45.429Z,71.65
2022-09-26T02:53:11.438Z,71.76
2022-09-26T03:00:25.121Z,71.93
2022-09-26T03:07:30.849Z,71.75
2022-09-26T03:14:32.645Z,72.00
2022-09-26T03:21:36.968Z,72.04
2022-09-26T03:28:40.026Z,72.19
2022-09-26T03:35:43.411Z,71.97
2022-09-26T03:42:46.714Z,71.79
2022-09-26T03:49:48.415Z,72.35
2022-09-26T03:56:50.620Z,72.57
2022-09-26T04:03:52.535Z,72.67
2022-09-26T04:11:03.245Z,73.17
2022-09-26T04:18:05.235Z,73.00
2022-09-26T04:25:07.212Z,73.29
2022-09-26T04:32:09.404Z,73.50
2022-09-26T04:39:26.294Z,73.21
2022-09-26T04:46:30.919Z,73.72
2022-09-26T04:53:34.994Z,74.67
2022-09-26T05:00:50.419Z,75.57
2022-09-26T05:08:02.683Z,75.58
2022-09-26T05:15:08.605Z,75.97
2022-09-26T05:22:10.652Z,76.15
2022-09-26T05:29:13.059Z,76.92
2022-09-26T05:36:21.503Z,76.94
2022-09-26T05:43:24.569Z,77.61
2022-09-26T05:50:27.147Z,77.99
2022-09-26T05:57:28.865Z,77.96
2022-09-26T06:04:31.592Z,77.79
2022-09-26T06:12:08.427Z,77.80
2022-09-26T06:19:10.145Z,77.08
2022-09-26T06:26:23.658Z,77.17
2022-09-26T06:33:27.709Z,76.34
2022-09-26T06:40:35.989Z,76.27
2022-09-26T06:47:37.647Z,75.43
2022-09-26T06:54:57.853Z,75.91
2022-09-26T07:02:01.127Z,75.27
2022-09-26T07:09:32.117Z,74.07
2022-09-26T07:16:51.949Z,73.67
2022-09-26T07:24:17.614Z,70.68
2022-09-26T07:31:20.239Z,70.15
2022-09-26T07:38:43.775Z,67.88
2022-09-26T07:46:04.090Z,65.83
2022-09-26T07:53:05.824Z,63.73
2022-09-26T08:00:09.527Z,62.33
2022-09-26T08:07:24.565Z,60.53
2022-09-26T08:14:39.776Z,59.87
2022-09-26T08:22:08.434Z,55.12
2022-09-26T08:29:11.209Z,54.69
2022-09-26T08:36:14.074Z,53.13
2022-09-26T08:43:49.699Z,51.19
2022-09-26T08:50:51.873Z,49.62
2022-09-26T08:58:18.014Z,48.44
2022-09-26T09:05:22.450Z,45.39
2022-09-26T09:13:00.201Z,44.06
2022-09-26T09:20:43.423Z,44.50
2022-09-26T09:28:15.693Z,42.58
2022-09-26T09:35:19.327Z,40.84
2022-09-26T09:42:51.890Z,41.65
2022-09-26T09:49:53.471Z,39.52
2022-09-26T09:57:28.889Z,37.67
2022-09-26T10:04:35.801Z,37.85
2022-09-26T10:11:41.883Z,36.52
2022-09-26T10:19:10.284Z,34.90
2022-09-26T10:26:12.149Z,34.22
2022-09-26T10:33:28.950Z,33.41
2022-09-26T15:10:41.849Z,40.26
2022-09-26T15:17:49.564Z,40.30
2022-09-26T15:24:55.300Z,40.27
2022-09-26T15:31:57.583Z,39.65
2022-09-26T15:38:59.368Z,39.72
2022-09-26T15:46:07.235Z,40.06
2022-09-26T15:53:20.961Z,40.69
2022-09-26T16:00:22.623Z,40.74
2022-09-26T16:07:26.492Z,41.16
2022-09-26T16:14:50.502Z,41.43
2022-09-26T16:21:55.820Z,41.54
2022-09-26T16:28:58.596Z,41.85
2022-09-26T16:36:22.154Z,42.94
2022-09-26T16:43:29.315Z,43.03
2022-09-26T16:50:33.125Z,43.75
2022-09-26T16:57:39.712Z,44.10
2022-09-26T17:04:41.280Z,44.63
2022-09-26T17:11:47.233Z,45.35
2022-09-26T17:18:48.803Z,45.88
2022-09-26T17:25:53.065Z,45.83
2022-09-26T17:32:55.826Z,46.21
2022-09-26T17:39:57.664Z,46.83
2022-09-26T17:46:59.973Z,46.52
2022-09-26T17:54:01.707Z,46.57
2022-09-26T18:01:04.302Z,46.46
2022-09-26T18:08:11.620Z,46.25
2022-09-26T18:15:16.064Z,46.65
2022-09-26T18:22:18.714Z,46.91
2022-09-26T18:29:29.764Z,46.89
2022-09-26T18:36:33.165Z,47.61
2022-09-26T18:43:41.234Z,47.83
2022-09-26T18:50:43.351Z,48.12
2022-09-26T18:58:03.628Z,48.17
2022-09-26T19:05:05.816Z,48.49
2022-09-26T19:12:09.876Z,48.68
2022-09-26T19:19:11.780Z,48.78
2022-09-26T19:26:34.984Z,49.15
2022-09-26T19:33:37.959Z,49.28
2022-09-26T19:40:39.853Z,49.50
2022-09-26T19:47:45.006Z,49.88
2022-09-26T19:54:46.700Z,50.04
2022-09-26T20:01:48.481Z,50.47
2022-09-26T20:08:51.075Z,50.61
2022-09-26T20:15:52.729Z,51.15
2022-09-26T20:22:54.432Z,51.25
2022-09-26T20:30:14.626Z,51.40
2022-09-26T20:37:16.310Z,51.80
2022-09-26T20:44:27.213Z,52.30
2022-09-26T20:51:29.966Z,52.87
2022-09-26T20:58:31.556Z,52.84
2022-09-26T21:05:33.145Z,53.21
2022-09-26T21:12:34.793Z,53.46
2022-09-26T21:19:36.453Z,53.83
2022-09-26T21:26:52.145Z,54.82
2022-09-26T21:33:54.679Z,56.24
2022-09-26T21:40:57.884Z,56.37
2022-09-26T21:47:59.607Z,57.13
2022-09-26T21:55:01.206Z,57.79
2022-09-26T22:02:02.846Z,58.00
2022-09-26T22:09:04.593Z,58.47
2022-09-26T22:16:12.870Z,58.13
2022-09-26T22:23:14.565Z,58.08
2022-09-26T22:30:16.273Z,58.28
2022-09-26T22:37:17.997Z,58.58
2022-09-26T22:44:19.964Z,58.83
2022-09-26T22:51:21.544Z,59.52
2022-09-26T22:58:23.417Z,60.09
2022-09-26T23:05:24.994Z,59.69
2022-09-26T23:12:26.616Z,60.21
2022-09-26T23:19:28.275Z,60.94
2022-09-26T23:26:31.509Z,60.90
2022-09-26T23:33:33.108Z,61.59
2022-09-26T23:40:36.681Z,62.13
2022-09-26T23:47:38.367Z,62.47
2022-09-26T23:54:39.977Z,62.16
